createdAt,value
2016-11-17T00:00:31.846Z,3
2016-11-17T00:01:37.847Z,3
2016-11-17T00:02:43.851Z,3
2016-11-17T00:03:49.846Z,3
2016-11-17T00:04:55.944Z,3
2016-11-17T00:06:01.943Z,3
2016-11-17T00:07:07.932Z,3
2016-11-17T00:08:13.932Z,3
2016-11-17T00:09:19.929Z,3
2016-11-17T00:10:25.936Z,3
2016-11-17T00:11:31.930Z,3
2016-11-17T00:12:37.932Z,3
2016-11-17T00:13:43.936Z,3
2016-11-17T00:14:49.936Z,3
2016-11-17T00:15:55.928Z,3
2016-11-17T00:17:01.926Z,3
2016-11-17T00:18:07.923Z,3
2016-11-17T00:19:13.929Z,3
2016-11-17T00:20:19.924Z,3
2016-11-17T00:21:25.914Z,3
2016-11-17T00:22:31.907Z,3
2016-11-17T00:23:37.907Z,3
2016-11-17T00:24:43.899Z,3
2016-11-17T00:25:49.896Z,3
2016-11-17T00:26:55.889Z,3
2016-11-17T00:28:01.887Z,3
2016-11-17T00:29:07.887Z,3
2016-11-17T00:30:13.886Z,3
2016-11-17T00:31:19.881Z,3
2016-11-17T00:32:25.885Z,3
2016-11-17T00:33:31.882Z,3
2016-11-17T00:34:37.882Z,3
2016-11-17T00:35:43.876Z,3
2016-11-17T00:36:49.869Z,3
2016-11-17T00:37:55.920Z,3
2016-11-17T00:39:01.931Z,3
2016-11-17T00:40:07.916Z,3
2016-11-17T00:41:13.909Z,3
2016-11-17T00:42:19.903Z,3
2016-11-17T00:43:25.903Z,3
2016-11-17T00:44:31.902Z,3
2016-11-17T00:45:37.896Z,3
2016-11-17T00:46:43.895Z,3
2016-11-17T00:47:49.894Z,3
2016-11-17T00:48:55.898Z,3
2016-11-17T00:50:01.893Z,3
2016-11-17T00:51:07.886Z,3
2016-11-17T00:52:13.883Z,3
2016-11-17T00:53:19.879Z,3
2016-11-17T00:54:25.872Z,3
2016-11-17T00:55:31.867Z,3
2016-11-17T00:56:37.867Z,3
2016-11-17T00:57:43.862Z,3
2016-11-17T00:58:49.855Z,3
2016-11-17T00:59:55.858Z,3
2016-11-17T01:01:01.855Z,3
2016-11-17T01:02:07.861Z,3
2016-11-17T01:03:13.863Z,3
2016-11-17T01:04:19.857Z,3
2016-11-17T01:05:25.859Z,3
2016-11-17T01:06:31.855Z,3
2016-11-17T01:07:37.850Z,3
2016-11-17T01:08:43.845Z,3
2016-11-17T01:09:49.851Z,3
2016-11-17T01:10:55.845Z,3
2016-11-17T01:12:01.841Z,3
2016-11-17T01:13:07.835Z,3
2016-11-17T01:14:13.844Z,3
2016-11-17T01:15:19.834Z,3
2016-11-17T01:16:25.836Z,3
2016-11-17T01:17:31.836Z,3
2016-11-17T01:18:37.838Z,3
2016-11-17T01:19:43.826Z,3
2016-11-17T01:20:49.823Z,3
2016-11-17T01:21:55.827Z,3
2016-11-17T01:23:01.823Z,3
2016-11-17T01:24:07.815Z,3
2016-11-17T01:25:13.803Z,3
2016-11-17T01:26:19.806Z,3
2016-11-17T01:27:25.805Z,3
2016-11-17T01:28:31.798Z,3
2016-11-17T01:29:37.802Z,3
2016-11-17T01:30:43.809Z,3
2016-11-17T01:31:49.802Z,3
2016-11-17T01:32:55.795Z,3
2016-11-17T01:34:01.797Z,3
2016-11-17T01:35:07.782Z,3
2016-11-17T01:36:13.779Z,3
2016-11-17T01:37:19.771Z,3
2016-11-17T01:38:25.776Z,3
2016-11-17T01:39:31.770Z,3
2016-11-17T01:40:37.761Z,3
2016-11-17T01:41:43.759Z,3
2016-11-17T01:42:49.763Z,3
2016-11-17T01:43:55.762Z,3
2016-11-17T01:45:01.755Z,3
2016-11-17T01:46:07.750Z,3
2016-11-17T01:47:13.752Z,3
2016-11-17T01:48:19.750Z,3
2016-11-17T01:49:25.746Z,3
2016-11-17T01:50:31.741Z,3
2016-11-17T01:51:37.741Z,3
2016-11-17T01:52:43.736Z,3
2016-11-17T01:53:49.733Z,3
2016-11-17T01:54:55.727Z,3
2016-11-17T01:56:01.728Z,3
2016-11-17T01:57:07.724Z,3
2016-11-17T01:58:13.723Z,3
2016-11-17T01:59:19.724Z,3
2016-11-17T02:00:25.717Z,3
2016-11-17T02:01:31.714Z,3
2016-11-17T02:02:37.717Z,3
2016-11-17T02:03:43.714Z,3
2016-11-17T02:04:49.711Z,3
2016-11-17T02:05:55.710Z,3
2016-11-17T02:07:01.710Z,3
2016-11-17T02:08:07.712Z,3
2016-11-17T02:09:13.707Z,3
2016-11-17T02:10:19.705Z,3
2016-11-17T02:11:25.694Z,3
2016-11-17T02:12:31.708Z,3
2016-11-17T02:13:37.703Z,3
2016-11-17T02:14:43.689Z,3
2016-11-17T02:15:49.694Z,3
2016-11-17T02:16:55.706Z,3
2016-11-17T02:18:01.702Z,3
2016-11-17T02:19:07.691Z,3
2016-11-17T02:20:13.690Z,3
2016-11-17T02:21:19.684Z,3
2016-11-17T02:22:25.683Z,3
2016-11-17T02:23:31.676Z,3
2016-11-17T02:24:37.678Z,3
2016-11-17T02:25:43.677Z,3
2016-11-17T02:26:49.679Z,3
2016-11-17T02:27:55.681Z,3
2016-11-17T02:29:01.673Z,3
2016-11-17T02:30:07.672Z,3
2016-11-17T02:31:13.668Z,3
2016-11-17T02:32:19.664Z,3
2016-11-17T02:33:25.771Z,3
2016-11-17T02:34:31.768Z,3
2016-11-17T02:35:37.765Z,3
2016-11-17T02:36:43.757Z,3
2016-11-17T02:37:49.757Z,3
2016-11-17T02:38:55.747Z,3
2016-11-17T02:40:01.741Z,3
2016-11-17T02:41:07.737Z,3
2016-11-17T02:42:13.745Z,3
2016-11-17T02:43:19.741Z,3
2016-11-17T02:44:25.743Z,3
2016-11-17T02:45:31.743Z,3
2016-11-17T02:46:37.745Z,3
2016-11-17T02:47:43.738Z,3
2016-11-17T02:48:49.742Z,3
2016-11-17T02:49:55.743Z,3
2016-11-17T02:51:01.736Z,3
2016-11-17T02:52:07.737Z,3
2016-11-17T02:53:13.737Z,3
2016-11-17T02:54:19.736Z,3
2016-11-17T02:55:25.727Z,3
2016-11-17T02:56:31.723Z,3
2016-11-17T02:57:37.727Z,3
2016-11-17T02:58:43.732Z,3
2016-11-17T02:59:49.726Z,3
2016-11-17T03:00:55.717Z,3
2016-11-17T03:02:01.722Z,3
2016-11-17T03:03:07.715Z,3
2016-11-17T03:04:13.712Z,3
2016-11-17T03:05:19.710Z,3
2016-11-17T03:06:25.715Z,3
2016-11-17T03:07:31.710Z,3
2016-11-17T03:08:37.705Z,3
2016-11-17T03:09:43.702Z,3
2016-11-17T03:10:49.706Z,3
2016-11-17T03:11:55.703Z,3
2016-11-17T03:13:01.703Z,3
2016-11-17T03:14:07.700Z,3
2016-11-17T03:15:13.701Z,3
2016-11-17T03:16:19.687Z,3
2016-11-17T03:17:25.687Z,3
2016-11-17T03:18:31.684Z,3
2016-11-17T03:19:37.683Z,3
2016-11-17T03:20:43.677Z,3
2016-11-17T03:21:49.672Z,3
2016-11-17T03:22:55.666Z,3
2016-11-17T03:24:01.665Z,3
2016-11-17T03:25:07.663Z,3
2016-11-17T03:26:13.662Z,3
2016-11-17T03:27:19.662Z,3
2016-11-17T03:28:25.663Z,3
2016-11-17T03:29:31.657Z,3
2016-11-17T03:30:37.660Z,3
2016-11-17T03:31:43.657Z,3
2016-11-17T03:32:49.645Z,3
2016-11-17T03:33:55.899Z,3
2016-11-17T03:35:01.894Z,3
2016-11-17T03:36:07.887Z,3
2016-11-17T03:37:13.888Z,3
2016-11-17T03:38:19.885Z,3
2016-11-17T03:39:25.884Z,3
2016-11-17T03:40:31.887Z,3
2016-11-17T03:41:37.886Z,3
2016-11-17T03:42:43.882Z,3
2016-11-17T03:43:49.890Z,3
2016-11-17T03:44:55.888Z,3
2016-11-17T03:46:01.885Z,3
2016-11-17T03:47:07.879Z,3
2016-11-17T03:48:13.877Z,3
2016-11-17T03:49:19.876Z,3
2016-11-17T03:50:25.871Z,3
2016-11-17T03:51:31.858Z,3
2016-11-17T03:52:37.843Z,3
2016-11-17T03:53:43.836Z,3
2016-11-17T03:54:49.827Z,3
2016-11-17T03:55:55.828Z,3
2016-11-17T03:57:01.821Z,3
2016-11-17T03:58:07.827Z,3
2016-11-17T03:59:13.825Z,3
2016-11-17T04:00:19.822Z,3
2016-11-17T04:01:25.817Z,3
2016-11-17T04:02:31.805Z,3
2016-11-17T04:03:37.797Z,3
2016-11-17T04:04:43.793Z,3
2016-11-17T04:05:49.794Z,3
2016-11-17T04:06:55.785Z,3
2016-11-17T04:08:01.779Z,3
2016-11-17T04:09:07.780Z,3
2016-11-17T04:10:13.780Z,3
2016-11-17T04:11:19.769Z,3
2016-11-17T04:12:25.765Z,3
2016-11-17T04:13:31.764Z,3
2016-11-17T04:14:37.773Z,3
2016-11-17T04:15:43.766Z,3
2016-11-17T04:16:49.764Z,3
2016-11-17T04:17:55.764Z,3
2016-11-17T04:19:01.755Z,3
2016-11-17T04:20:07.756Z,3
2016-11-17T04:21:13.756Z,3
2016-11-17T04:22:19.748Z,3
2016-11-17T04:23:25.741Z,3
2016-11-17T04:24:31.745Z,3
2016-11-17T04:25:37.744Z,3
2016-11-17T04:26:43.742Z,3
2016-11-17T04:27:49.737Z,3
2016-11-17T04:28:55.737Z,3
2016-11-17T04:30:01.742Z,3
2016-11-17T04:31:07.737Z,3
2016-11-17T04:32:13.736Z,3
2016-11-17T04:33:19.735Z,3
2016-11-17T04:34:25.734Z,3
2016-11-17T04:35:31.745Z,3
2016-11-17T04:36:37.738Z,3
2016-11-17T04:37:43.730Z,3
2016-11-17T04:38:49.725Z,3
2016-11-17T04:39:55.711Z,3
2016-11-17T04:41:01.705Z,3
2016-11-17T04:42:07.695Z,3
2016-11-17T04:43:13.701Z,3
2016-11-17T04:44:19.704Z,3
2016-11-17T04:45:25.700Z,3
2016-11-17T04:46:31.701Z,3
2016-11-17T04:47:37.702Z,3
2016-11-17T04:48:43.698Z,3
2016-11-17T04:49:49.693Z,3
2016-11-17T04:50:55.684Z,3
2016-11-17T04:52:01.685Z,3
2016-11-17T04:53:07.684Z,3
2016-11-17T04:54:13.685Z,3
2016-11-17T04:55:19.683Z,3
2016-11-17T04:56:25.674Z,3
2016-11-17T04:57:31.681Z,3
2016-11-17T04:58:37.684Z,3
2016-11-17T04:59:43.679Z,3
2016-11-17T05:00:49.679Z,3
2016-11-17T05:01:55.686Z,3
2016-11-17T05:03:01.682Z,3
2016-11-17T05:04:07.678Z,3
2016-11-17T05:05:13.680Z,3
2016-11-17T05:06:18.571Z,3
2016-11-17T05:07:24.567Z,3
2016-11-17T05:08:30.557Z,3
2016-11-17T05:09:36.559Z,3
2016-11-17T05:10:42.551Z,3
2016-11-17T05:11:48.554Z,3
2016-11-17T05:12:54.556Z,3
2016-11-17T05:14:00.558Z,3
2016-11-17T05:15:06.549Z,3
2016-11-17T05:16:12.544Z,3
2016-11-17T05:17:18.545Z,3
2016-11-17T05:18:24.541Z,3
2016-11-17T05:19:30.539Z,3
2016-11-17T05:20:36.532Z,3
2016-11-17T05:21:42.532Z,3
2016-11-17T05:22:48.527Z,3
2016-11-17T05:23:54.518Z,3
2016-11-17T05:25:00.507Z,3
2016-11-17T05:26:06.499Z,3
2016-11-17T05:27:12.493Z,3
2016-11-17T05:28:18.486Z,3
2016-11-17T05:29:24.489Z,3
2016-11-17T05:30:30.487Z,3
2016-11-17T05:31:36.481Z,3
2016-11-17T05:32:42.477Z,3
2016-11-17T05:33:48.481Z,3
2016-11-17T05:34:54.468Z,3
2016-11-17T05:36:00.463Z,3
2016-11-17T05:37:05.710Z,3
2016-11-17T05:38:11.713Z,3
2016-11-17T05:39:17.706Z,3
2016-11-17T05:40:23.707Z,3
2016-11-17T05:41:29.706Z,3
2016-11-17T05:42:35.700Z,3
2016-11-17T05:43:41.692Z,3
2016-11-17T05:44:47.692Z,3
2016-11-17T05:45:53.684Z,3
2016-11-17T05:46:59.688Z,3
2016-11-17T05:48:05.695Z,3
2016-11-17T05:49:11.697Z,3
2016-11-17T05:50:17.694Z,3
2016-11-17T05:51:23.695Z,3
2016-11-17T05:52:29.692Z,3
2016-11-17T05:53:35.686Z,3
2016-11-17T05:54:41.683Z,3
2016-11-17T05:55:47.682Z,3
2016-11-17T05:56:53.678Z,3
2016-11-17T05:57:59.679Z,3
2016-11-17T05:59:05.680Z,3
2016-11-17T06:00:11.679Z,3
2016-11-17T06:01:17.675Z,3
2016-11-17T06:02:23.673Z,3
2016-11-17T06:03:29.675Z,3
2016-11-17T06:04:35.673Z,3
2016-11-17T06:05:41.669Z,3
2016-11-17T06:06:47.668Z,3
2016-11-17T06:07:53.663Z,3
2016-11-17T06:08:59.660Z,3
2016-11-17T06:10:04.563Z,3
2016-11-17T06:11:10.562Z,3
2016-11-17T06:12:16.550Z,3
2016-11-17T06:13:22.550Z,3
2016-11-17T06:14:28.554Z,3
2016-11-17T06:15:34.550Z,3
2016-11-17T06:16:40.546Z,3
2016-11-17T06:17:46.544Z,3
2016-11-17T06:18:52.549Z,3
2016-11-17T06:19:58.541Z,3
2016-11-17T06:21:04.537Z,3
2016-11-17T06:22:10.537Z,3
2016-11-17T06:23:16.540Z,3
2016-11-17T06:24:22.542Z,3
2016-11-17T06:25:28.538Z,3
2016-11-17T06:26:34.530Z,3
2016-11-17T06:27:40.520Z,3
2016-11-17T06:28:46.518Z,3
2016-11-17T06:29:52.525Z,3
2016-11-17T06:30:58.518Z,3
2016-11-17T06:32:04.509Z,3
2016-11-17T06:33:10.512Z,3
2016-11-17T06:34:16.510Z,3
2016-11-17T06:35:22.510Z,3
2016-11-17T06:36:28.506Z,3
2016-11-17T06:37:34.510Z,3
2016-11-17T06:38:40.499Z,3
2016-11-17T06:39:46.499Z,3
2016-11-17T06:40:52.500Z,3
2016-11-17T06:41:58.506Z,3
2016-11-17T06:43:04.498Z,3
2016-11-17T06:44:10.498Z,3
2016-11-17T06:45:16.502Z,3
2016-11-17T06:46:22.493Z,3
2016-11-17T06:47:28.484Z,3
2016-11-17T06:48:34.485Z,3
2016-11-17T06:49:40.484Z,3
2016-11-17T06:50:46.476Z,3
2016-11-17T06:51:52.471Z,3
2016-11-17T06:52:58.467Z,3
2016-11-17T06:54:04.470Z,3
2016-11-17T06:55:10.467Z,3
2016-11-17T06:56:16.470Z,3
2016-11-17T06:57:22.463Z,3
2016-11-17T06:58:28.456Z,3
2016-11-17T06:59:34.452Z,3
2016-11-17T07:00:40.454Z,3
2016-11-17T07:01:46.461Z,3
2016-11-17T07:02:52.453Z,3
2016-11-17T07:03:58.442Z,3
2016-11-17T07:05:04.441Z,3
2016-11-17T07:06:10.441Z,3
2016-11-17T07:07:16.433Z,3
2016-11-17T07:08:22.430Z,3
2016-11-17T07:09:28.426Z,3
2016-11-17T07:10:34.431Z,3
2016-11-17T07:11:40.419Z,3
2016-11-17T07:12:46.410Z,3
2016-11-17T07:13:52.404Z,3
2016-11-17T07:14:58.399Z,3
2016-11-17T07:16:04.389Z,3
2016-11-17T07:17:10.380Z,3
2016-11-17T07:18:16.380Z,3
2016-11-17T07:19:22.376Z,3
2016-11-17T07:20:28.372Z,3
2016-11-17T07:21:34.369Z,3
2016-11-17T07:22:40.364Z,3
2016-11-17T07:23:46.353Z,3
2016-11-17T07:24:52.349Z,3
2016-11-17T07:25:57.605Z,3
2016-11-17T07:27:03.602Z,3
2016-11-17T07:28:09.597Z,3
2016-11-17T07:29:15.594Z,3
2016-11-17T07:30:21.592Z,3
2016-11-17T07:31:27.590Z,3
2016-11-17T07:32:33.587Z,3
2016-11-17T07:33:39.578Z,3
2016-11-17T07:34:45.577Z,3
2016-11-17T07:35:51.579Z,3
2016-11-17T07:36:57.575Z,3
2016-11-17T07:38:03.567Z,3
2016-11-17T07:39:09.569Z,3
2016-11-17T07:40:15.568Z,3
2016-11-17T07:41:21.563Z,3
2016-11-17T07:42:27.554Z,3
2016-11-17T07:43:33.554Z,3
2016-11-17T07:44:39.551Z,3
2016-11-17T07:45:45.545Z,3
2016-11-17T07:46:51.540Z,3
2016-11-17T07:47:57.538Z,3
2016-11-17T07:49:03.532Z,3
2016-11-17T07:50:09.532Z,3
2016-11-17T07:51:15.532Z,3
2016-11-17T07:52:21.529Z,3
2016-11-17T07:53:27.522Z,3
2016-11-17T07:54:33.526Z,3
2016-11-17T07:55:39.523Z,3
2016-11-17T07:56:44.766Z,3
2016-11-17T07:57:50.762Z,3
2016-11-17T07:58:56.766Z,3
2016-11-17T08:00:02.766Z,3
2016-11-17T08:01:08.774Z,3
2016-11-17T08:02:14.759Z,3
2016-11-17T08:03:20.751Z,3
2016-11-17T08:04:26.748Z,3
2016-11-17T08:05:32.753Z,3
2016-11-17T08:06:38.745Z,3
2016-11-17T08:07:44.745Z,3
2016-11-17T08:08:50.745Z,3
2016-11-17T08:09:56.751Z,3
2016-11-17T08:11:02.744Z,3
2016-11-17T08:12:08.737Z,3
2016-11-17T08:13:14.734Z,3
2016-11-17T08:14:20.741Z,3
2016-11-17T08:15:26.731Z,3
2016-11-17T08:16:32.724Z,3
2016-11-17T08:17:38.719Z,3
2016-11-17T08:18:44.717Z,3
2016-11-17T08:19:50.719Z,3
2016-11-17T08:20:56.720Z,3
2016-11-17T08:22:02.723Z,3
2016-11-17T08:23:08.721Z,3
2016-11-17T08:24:14.719Z,3
2016-11-17T08:25:20.723Z,3
2016-11-17T08:26:26.726Z,82
2016-11-17T08:27:32.725Z,82
2016-11-17T08:28:38.723Z,82
2016-11-17T08:29:44.732Z,82
2016-11-17T08:30:50.724Z,82
2016-11-17T08:31:56.720Z,82
2016-11-17T08:33:02.717Z,82
2016-11-17T08:34:08.720Z,82
2016-11-17T08:35:14.718Z,82
2016-11-17T08:36:20.718Z,82
2016-11-17T08:37:26.715Z,82
2016-11-17T08:38:32.720Z,82
2016-11-17T08:39:38.720Z,82
2016-11-17T08:40:44.718Z,82
2016-11-17T08:41:50.769Z,82
2016-11-17T08:42:56.757Z,82
2016-11-17T08:44:02.757Z,82
2016-11-17T08:45:08.753Z,82
2016-11-17T08:46:14.753Z,82
2016-11-17T08:47:20.803Z,82
2016-11-17T08:48:26.796Z,82
2016-11-17T08:49:32.793Z,82
2016-11-17T08:50:38.790Z,82
2016-11-17T08:51:44.791Z,82
2016-11-17T08:52:50.788Z,82
2016-11-17T08:53:56.789Z,82
2016-11-17T08:55:02.784Z,82
2016-11-17T08:56:08.788Z,82
2016-11-17T08:57:14.783Z,82
2016-11-17T08:58:20.779Z,82
2016-11-17T08:59:26.773Z,82
2016-11-17T09:00:32.777Z,82
2016-11-17T09:01:38.769Z,82
2016-11-17T09:02:44.771Z,82
2016-11-17T09:03:50.769Z,82
2016-11-17T09:04:56.765Z,82
2016-11-17T09:06:02.763Z,82
2016-11-17T09:07:08.764Z,82
2016-11-17T09:08:14.762Z,82
2016-11-17T09:09:20.759Z,82
2016-11-17T09:10:26.756Z,82
2016-11-17T09:11:32.758Z,82
2016-11-17T09:12:38.754Z,81
2016-11-17T09:13:44.748Z,81
2016-11-17T09:14:50.747Z,81
2016-11-17T09:15:56.741Z,81
2016-11-17T09:17:02.740Z,81
2016-11-17T09:18:08.741Z,81
2016-11-17T09:19:14.742Z,81
2016-11-17T09:20:20.740Z,81
2016-11-17T09:21:26.737Z,81
2016-11-17T09:22:32.734Z,81
2016-11-17T09:23:38.734Z,81
2016-11-17T09:24:44.726Z,81
2016-11-17T09:25:50.720Z,81
2016-11-17T09:26:56.716Z,81
2016-11-17T09:28:02.717Z,81
2016-11-17T09:29:08.715Z,81
2016-11-17T09:30:14.710Z,81
2016-11-17T09:31:20.710Z,81
2016-11-17T09:32:26.704Z,81
2016-11-17T09:33:32.698Z,81
2016-11-17T09:34:38.867Z,81
2016-11-17T09:35:44.697Z,81
2016-11-17T09:36:50.701Z,81
2016-11-17T09:37:56.712Z,81
2016-11-17T09:39:02.700Z,81
2016-11-17T09:40:08.703Z,81
2016-11-17T09:41:14.703Z,80
2016-11-17T09:42:20.697Z,80
2016-11-17T09:43:26.688Z,80
2016-11-17T09:44:32.686Z,80
2016-11-17T09:45:38.706Z,80
2016-11-17T09:46:44.677Z,80
2016-11-17T09:47:50.678Z,80
2016-11-17T09:48:56.674Z,80
2016-11-17T09:50:02.666Z,80
2016-11-17T09:51:08.661Z,80
2016-11-17T09:52:14.657Z,80
2016-11-17T09:53:20.655Z,80
2016-11-17T09:54:26.650Z,80
2016-11-17T09:55:31.898Z,80
2016-11-17T09:56:37.905Z,80
2016-11-17T09:57:43.904Z,80
2016-11-17T09:58:49.891Z,80
2016-11-17T09:59:55.890Z,80
2016-11-17T10:01:01.887Z,80
2016-11-17T10:02:07.891Z,80
2016-11-17T10:03:13.885Z,80
2016-11-17T10:04:19.886Z,80
2016-11-17T10:05:25.887Z,80
2016-11-17T10:06:31.890Z,80
2016-11-17T10:07:37.879Z,80
2016-11-17T10:08:43.879Z,80
2016-11-17T10:09:49.877Z,80
2016-11-17T10:10:55.872Z,80
2016-11-17T10:12:01.869Z,80
2016-11-17T10:13:07.865Z,80
2016-11-17T10:14:13.868Z,80
2016-11-17T10:15:19.866Z,80
2016-11-17T10:16:25.868Z,80
2016-11-17T10:17:31.864Z,80
2016-11-17T10:18:37.857Z,80
2016-11-17T10:19:42.762Z,80
2016-11-17T10:20:48.754Z,80
2016-11-17T10:21:54.747Z,80
2016-11-17T10:23:00.757Z,80
2016-11-17T10:24:06.750Z,80
2016-11-17T10:25:12.741Z,80
2016-11-17T10:26:18.739Z,80
2016-11-17T10:27:24.739Z,80
2016-11-17T10:28:30.737Z,80
2016-11-17T10:29:36.727Z,80
2016-11-17T10:30:42.725Z,80
2016-11-17T10:31:48.723Z,80
2016-11-17T10:32:54.721Z,80
2016-11-17T10:34:00.715Z,80
2016-11-17T10:35:06.714Z,80
2016-11-17T10:36:12.707Z,80
2016-11-17T10:37:18.703Z,80
2016-11-17T10:38:24.698Z,80
2016-11-17T10:39:30.697Z,80
2016-11-17T10:40:36.695Z,80
2016-11-17T10:41:42.691Z,79
2016-11-17T10:42:48.681Z,79
2016-11-17T10:43:54.676Z,79
2016-11-17T10:45:00.672Z,79
2016-11-17T10:46:06.671Z,79
2016-11-17T10:47:12.677Z,79
2016-11-17T10:48:18.670Z,79
2016-11-17T10:49:24.664Z,79
2016-11-17T10:50:30.665Z,79
2016-11-17T10:51:36.665Z,79
2016-11-17T10:52:42.661Z,79
2016-11-17T10:53:48.656Z,79
2016-11-17T10:54:54.660Z,79
2016-11-17T10:56:00.658Z,79
2016-11-17T10:57:06.656Z,79
2016-11-17T10:58:12.652Z,79
2016-11-17T10:59:18.648Z,79
2016-11-17T11:00:24.648Z,79
2016-11-17T11:01:30.649Z,79
2016-11-17T11:02:36.651Z,79
2016-11-17T11:03:42.644Z,79
2016-11-17T11:04:48.631Z,79
2016-11-17T11:05:54.632Z,79
2016-11-17T11:07:00.630Z,78
2016-11-17T11:08:06.636Z,79
2016-11-17T11:09:12.631Z,79
2016-11-17T11:10:18.626Z,78
2016-11-17T11:11:24.622Z,78
2016-11-17T11:12:30.628Z,78
2016-11-17T11:13:36.612Z,78
2016-11-17T11:14:42.610Z,78
2016-11-17T11:15:48.611Z,78
2016-11-17T11:16:54.614Z,78
2016-11-17T11:18:00.604Z,78
2016-11-17T11:19:06.599Z,78
2016-11-17T11:20:12.591Z,78
2016-11-17T11:21:18.590Z,78
2016-11-17T11:22:24.594Z,78
2016-11-17T11:23:30.585Z,77
2016-11-17T11:24:36.583Z,77
2016-11-17T11:25:42.573Z,77
2016-11-17T11:26:48.569Z,77
2016-11-17T11:27:54.570Z,77
2016-11-17T11:29:00.565Z,77
2016-11-17T11:30:06.562Z,77
2016-11-17T11:31:12.560Z,76
2016-11-17T11:32:18.552Z,76
2016-11-17T11:33:24.556Z,76
2016-11-17T11:34:30.557Z,76
2016-11-17T11:35:36.558Z,76
2016-11-17T11:36:42.549Z,76
2016-11-17T11:37:48.555Z,76
2016-11-17T11:38:54.546Z,75
2016-11-17T11:40:00.543Z,75
2016-11-17T11:41:06.737Z,75
2016-11-17T11:42:12.740Z,75
2016-11-17T11:43:18.737Z,75
2016-11-17T11:44:24.733Z,75
2016-11-17T11:45:30.721Z,75
2016-11-17T11:46:36.721Z,75
2016-11-17T11:47:42.717Z,75
2016-11-17T11:48:48.717Z,75
2016-11-17T11:49:54.719Z,75
2016-11-17T11:51:00.715Z,75
2016-11-17T11:52:06.711Z,74
2016-11-17T11:53:12.712Z,74
2016-11-17T11:54:17.967Z,74
2016-11-17T11:55:23.969Z,74
2016-11-17T11:56:29.965Z,74
2016-11-17T11:57:35.960Z,74
2016-11-17T11:58:41.957Z,74
2016-11-17T11:59:47.958Z,74
2016-11-17T12:00:53.950Z,74
2016-11-17T12:01:59.948Z,74
2016-11-17T12:03:05.952Z,74
2016-11-17T12:04:11.950Z,74
2016-11-17T12:05:17.946Z,74
2016-11-17T12:06:23.941Z,74
2016-11-17T12:07:29.929Z,74
2016-11-17T12:08:35.926Z,74
2016-11-17T12:09:41.921Z,74
2016-11-17T12:10:47.916Z,74
2016-11-17T12:11:53.913Z,73
2016-11-17T12:12:59.907Z,73
2016-11-17T12:14:05.912Z,73
2016-11-17T12:15:11.908Z,73
2016-11-17T12:16:17.911Z,73
2016-11-17T12:17:23.910Z,73
2016-11-17T12:18:29.910Z,73
2016-11-17T12:19:35.905Z,73
2016-11-17T12:20:41.898Z,72
2016-11-17T12:21:47.893Z,72
2016-11-17T12:22:53.892Z,72
2016-11-17T12:23:59.884Z,72
2016-11-17T12:25:05.885Z,71
2016-11-17T12:26:11.883Z,71
2016-11-17T12:27:17.884Z,71
2016-11-17T12:28:23.880Z,71
2016-11-17T12:29:29.876Z,71
2016-11-17T12:30:35.871Z,71
2016-11-17T12:31:41.866Z,71
2016-11-17T12:32:47.858Z,71
2016-11-17T12:33:53.861Z,71
2016-11-17T12:34:59.855Z,71
2016-11-17T12:36:05.864Z,71
2016-11-17T12:37:11.866Z,71
2016-11-17T12:38:17.868Z,71
2016-11-17T12:39:23.870Z,71
2016-11-17T12:40:29.868Z,71
2016-11-17T12:41:35.859Z,71
2016-11-17T12:42:41.859Z,71
2016-11-17T12:43:47.862Z,71
2016-11-17T12:44:53.868Z,71
2016-11-17T12:45:59.860Z,71
2016-11-17T12:47:05.864Z,71
2016-11-17T12:48:11.865Z,71
2016-11-17T12:49:17.856Z,71
2016-11-17T12:50:23.855Z,71
2016-11-17T12:51:29.857Z,71
2016-11-17T12:52:35.859Z,71
2016-11-17T12:53:41.860Z,71
2016-11-17T12:54:47.866Z,71
2016-11-17T12:55:53.867Z,70
2016-11-17T12:56:59.870Z,70
2016-11-17T12:58:05.864Z,69
2016-11-17T12:59:11.869Z,69
2016-11-17T13:00:17.867Z,69
2016-11-17T13:01:23.866Z,68
2016-11-17T13:02:29.864Z,68
2016-11-17T13:03:35.862Z,68
2016-11-17T13:04:41.860Z,67
2016-11-17T13:05:47.867Z,67
2016-11-17T13:06:53.868Z,67
2016-11-17T13:07:59.864Z,67
2016-11-17T13:09:05.857Z,67
2016-11-17T13:10:11.865Z,66
2016-11-17T13:11:17.863Z,66
2016-11-17T13:12:23.860Z,66
2016-11-17T13:13:29.861Z,65
2016-11-17T13:14:35.868Z,65
2016-11-17T13:15:41.877Z,65
2016-11-17T13:16:47.870Z,65
2016-11-17T13:17:53.872Z,65
2016-11-17T13:18:59.866Z,64
2016-11-17T13:20:05.861Z,64
2016-11-17T13:21:11.862Z,64
2016-11-17T13:22:17.868Z,64
2016-11-17T13:23:23.871Z,64
2016-11-17T13:24:29.866Z,63
2016-11-17T13:25:35.864Z,63
2016-11-17T13:26:41.867Z,63
2016-11-17T13:27:47.863Z,63
2016-11-17T13:28:53.860Z,63
2016-11-17T13:29:59.857Z,63
2016-11-17T13:31:05.868Z,63
2016-11-17T13:32:11.869Z,63
2016-11-17T13:33:17.865Z,63
2016-11-17T13:34:23.865Z,63
2016-11-17T13:35:30.701Z,63
2016-11-17T13:36:36.119Z,63
2016-11-17T13:37:42.116Z,63
2016-11-17T13:38:48.113Z,63
2016-11-17T13:39:54.113Z,62
2016-11-17T13:41:00.119Z,62
2016-11-17T13:42:06.116Z,62
2016-11-17T13:43:12.117Z,62
2016-11-17T13:44:18.120Z,62
2016-11-17T13:45:24.112Z,62
2016-11-17T13:46:30.108Z,62
2016-11-17T13:47:36.109Z,62
2016-11-17T13:48:42.109Z,62
2016-11-17T13:49:48.116Z,62
2016-11-17T13:50:54.110Z,62
2016-11-17T13:52:00.114Z,62
2016-11-17T13:53:06.110Z,62
2016-11-17T13:54:12.103Z,62
2016-11-17T13:55:18.098Z,62
2016-11-17T13:56:24.094Z,62
2016-11-17T13:57:30.095Z,62
2016-11-17T13:58:36.093Z,62
2016-11-17T13:59:42.097Z,62
2016-11-17T14:00:48.088Z,62
2016-11-17T14:01:54.086Z,62
2016-11-17T14:03:00.082Z,62
2016-11-17T14:04:06.075Z,61
2016-11-17T14:05:12.074Z,62
2016-11-17T14:06:18.077Z,62
2016-11-17T14:07:24.076Z,62
2016-11-17T14:08:30.071Z,62
2016-11-17T14:09:36.070Z,62
2016-11-17T14:10:42.065Z,62
2016-11-17T14:11:48.061Z,62
2016-11-17T14:12:54.052Z,62
2016-11-17T14:14:00.055Z,62
2016-11-17T14:15:06.057Z,62
2016-11-17T14:16:12.056Z,62
2016-11-17T14:17:18.053Z,62
2016-11-17T14:18:24.051Z,62
2016-11-17T14:19:30.051Z,62
2016-11-17T14:20:36.048Z,62
2016-11-17T14:21:42.038Z,62
2016-11-17T14:22:48.040Z,62
2016-11-17T14:23:54.039Z,62
2016-11-17T14:25:00.036Z,62
2016-11-17T14:26:06.026Z,62
2016-11-17T14:27:12.032Z,62
2016-11-17T14:28:18.026Z,62
2016-11-17T14:29:24.020Z,62
2016-11-17T14:30:30.008Z,62
2016-11-17T14:31:36.013Z,62
2016-11-17T14:32:42.009Z,62
2016-11-17T14:33:48.007Z,62
2016-11-17T14:34:54.017Z,62
2016-11-17T14:36:00.017Z,62
2016-11-17T14:37:06.011Z,62
2016-11-17T14:38:12.009Z,62
2016-11-17T14:39:18.029Z,63
2016-11-17T14:40:24.004Z,63
2016-11-17T14:41:30.001Z,63
2016-11-17T14:42:35.999Z,63
2016-11-17T14:43:42.002Z,63
2016-11-17T14:44:48.002Z,63
2016-11-17T14:45:54.004Z,63
2016-11-17T14:46:59.998Z,63
2016-11-17T14:48:05.996Z,63
2016-11-17T14:49:11.991Z,63
2016-11-17T14:50:17.997Z,63
2016-11-17T14:51:23.988Z,63
2016-11-17T14:52:29.987Z,63
2016-11-17T14:53:35.985Z,63
2016-11-17T14:54:41.991Z,63
2016-11-17T14:55:47.978Z,64
2016-11-17T14:56:53.978Z,64
2016-11-17T14:57:59.976Z,64
2016-11-17T14:59:05.973Z,63
2016-11-17T15:00:11.963Z,63
2016-11-17T15:01:17.962Z,63
2016-11-17T15:02:23.962Z,63
2016-11-17T15:03:29.953Z,62
2016-11-17T15:04:35.958Z,62
2016-11-17T15:05:41.953Z,62
2016-11-17T15:06:47.950Z,62
2016-11-17T15:07:53.949Z,62
2016-11-17T15:08:59.942Z,62
2016-11-17T15:10:05.943Z,62
2016-11-17T15:11:11.945Z,62
2016-11-17T15:12:17.947Z,62
2016-11-17T15:13:23.945Z,62
2016-11-17T15:14:29.945Z,62
2016-11-17T15:15:35.943Z,62
2016-11-17T15:16:41.936Z,62
2016-11-17T15:17:47.933Z,62
2016-11-17T15:18:53.931Z,62
2016-11-17T15:19:59.931Z,62
2016-11-17T15:21:05.928Z,62
2016-11-17T15:22:11.925Z,62
2016-11-17T15:23:17.925Z,62
2016-11-17T15:24:23.926Z,62
2016-11-17T15:25:29.920Z,62
2016-11-17T15:26:35.921Z,62
2016-11-17T15:27:41.923Z,62
2016-11-17T15:28:47.915Z,62
2016-11-17T15:29:53.910Z,62
2016-11-17T15:30:59.907Z,62
2016-11-17T15:32:05.911Z,62
2016-11-17T15:33:11.904Z,62
2016-11-17T15:34:17.901Z,62
2016-11-17T15:35:23.902Z,62
2016-11-17T15:36:29.899Z,62
2016-11-17T15:37:35.899Z,62
2016-11-17T15:38:41.896Z,62
2016-11-17T15:39:47.891Z,62
2016-11-17T15:40:53.886Z,62
2016-11-17T15:41:59.885Z,62
2016-11-17T15:43:05.880Z,62
2016-11-17T15:44:11.877Z,62
2016-11-17T15:45:17.877Z,62
2016-11-17T15:46:23.882Z,62
2016-11-17T15:47:29.877Z,62
2016-11-17T15:48:35.873Z,62
2016-11-17T15:49:41.866Z,62
2016-11-17T15:50:47.870Z,62
2016-11-17T15:51:53.872Z,62
2016-11-17T15:52:59.871Z,62
2016-11-17T15:54:05.863Z,62
2016-11-17T15:55:11.863Z,62
2016-11-17T15:56:17.862Z,62
2016-11-17T15:57:23.855Z,62
2016-11-17T15:58:29.854Z,62
2016-11-17T15:59:35.857Z,62